Terminal Aerodrome Forecast
Issued by NWS

Home | Current Version | Previous Version | Text Only | Print | Product List | Glossary On
Versions: 1 2 3 4 5 6 7 8 9 10 11 12
000
FTUS46 KHNX 252325
TAFFAT
TAF
KFAT 252325Z 2600/2624 32005KT P6SM BKN040 OVC050
      TEMPO 2600/2602 -SHRA BKN030 OVC040
     FM260300 31010KT P6SM SCT050 BKN070
     FM261200 31011KT P6SM SCT100=

USA.gov is the U.S. government's official web portal to all federal, state and local government web resources and services.